createdAt,value
2022-12-31T00:01:30.746Z,100183.75
2022-12-31T00:03:59.687Z,100163.50
2022-12-31T00:06:33.175Z,100172.16
2022-12-31T00:09:04.841Z,100167.75
2022-12-31T00:11:35.565Z,100167.63
2022-12-31T00:14:04.766Z,100176.38
2022-12-31T00:16:37.115Z,100163.91
2022-12-31T00:19:07.380Z,100162.06
2022-12-31T00:21:39.011Z,100162.97
2022-12-31T00:24:09.551Z,100161.00
2022-12-31T00:26:39.265Z,100165.41
2022-12-31T00:29:08.530Z,100158.41
2022-12-31T00:31:39.768Z,100169.84
2022-12-31T00:34:09.211Z,100160.09
2022-12-31T00:36:40.346Z,100153.66
2022-12-31T00:39:11.879Z,100152.97
2022-12-31T00:41:43.312Z,100159.03
2022-12-31T00:44:13.982Z,100163.41
2022-12-31T00:49:12.708Z,100170.25
2022-12-31T00:51:43.375Z,100172.88
2022-12-31T00:54:12.483Z,100172.88
2022-12-31T00:56:41.789Z,100175.38
2022-12-31T00:59:10.850Z,100169.25
2022-12-31T01:01:41.223Z,100162.28
2022-12-31T01:04:12.455Z,100168.28
2022-12-31T01:06:43.738Z,100159.47
2022-12-31T01:09:14.092Z,100157.53
2022-12-31T01:11:43.545Z,100163.75
2022-12-31T01:14:14.492Z,100154.84
2022-12-31T01:16:45.749Z,100147.63
2022-12-31T01:19:17.823Z,100139.50
2022-12-31T01:21:50.299Z,100132.34
2022-12-31T01:24:20.062Z,100139.53
2022-12-31T01:26:49.242Z,100143.78
2022-12-31T01:29:18.197Z,100143.03
2022-12-31T01:31:47.694Z,100151.91
2022-12-31T01:34:16.645Z,100149.06
2022-12-31T01:36:48.130Z,100150.72
2022-12-31T01:39:17.268Z,100142.59
2022-12-31T01:41:48.458Z,100143.50
2022-12-31T01:44:49.311Z,100140.97
2022-12-31T01:47:23.051Z,100139.03
2022-12-31T01:49:55.812Z,100136.28
2022-12-31T01:52:31.901Z,100134.59
2022-12-31T01:55:07.201Z,100123.84
2022-12-31T01:57:38.732Z,100137.19
2022-12-31T02:00:10.035Z,100146.03
2022-12-31T02:02:39.556Z,100140.56
2022-12-31T02:05:17.642Z,100133.38
2022-12-31T02:07:49.967Z,100135.16
2022-12-31T02:10:19.315Z,100145.75
2022-12-31T02:12:49.273Z,100140.38
2022-12-31T02:15:18.786Z,100130.78
2022-12-31T02:17:57.359Z,100136.91
2022-12-31T02:21:18.161Z,100122.47
2022-12-31T02:24:34.048Z,100110.91
2022-12-31T02:27:08.156Z,100108.44
2022-12-31T02:30:08.838Z,100104.03
2022-12-31T02:32:49.612Z,100096.94
2022-12-31T02:35:26.028Z,100098.63
2022-12-31T02:38:00.322Z,100089.78
2022-12-31T02:40:30.034Z,100100.47
2022-12-31T02:42:59.051Z,100097.63
2022-12-31T02:45:35.540Z,100103.94
2022-12-31T02:48:17.240Z,100088.69
2022-12-31T02:50:56.514Z,100101.91
2022-12-31T02:53:53.294Z,100100.94
2022-12-31T02:56:28.743Z,100098.22
2022-12-31T02:59:23.743Z,100108.84
2022-12-31T03:02:16.850Z,100100.00
2022-12-31T03:04:50.197Z,100109.66
2022-12-31T03:07:22.785Z,100101.59
2022-12-31T03:09:52.046Z,100109.44
2022-12-31T03:12:40.776Z,100110.41
2022-12-31T03:15:20.280Z,100089.97
2022-12-31T03:17:58.368Z,100078.41
2022-12-31T03:20:48.515Z,100083.63
2022-12-31T03:23:22.902Z,100088.94
2022-12-31T03:25:51.312Z,100092.41
2022-12-31T03:28:23.524Z,100099.19
2022-12-31T03:31:21.249Z,100100.81
2022-12-31T03:33:52.027Z,100090.28
2022-12-31T03:36:21.126Z,100079.44
2022-12-31T03:38:52.833Z,100086.22
2022-12-31T03:41:22.208Z,100116.22
2022-12-31T03:43:51.458Z,100110.19
2022-12-31T03:46:20.521Z,100109.13
2022-12-31T03:48:51.253Z,100125.06
2022-12-31T03:51:20.428Z,100104.44
2022-12-31T03:53:49.701Z,100123.09
2022-12-31T03:56:18.823Z,100112.41
2022-12-31T03:58:48.440Z,100117.91
2022-12-31T04:01:17.660Z,100122.19
2022-12-31T04:03:46.966Z,100126.47
2022-12-31T04:06:17.546Z,100140.59
2022-12-31T04:08:46.939Z,100130.84
2022-12-31T04:11:20.685Z,100139.47
2022-12-31T04:13:50.596Z,100134.25
2022-12-31T04:16:19.709Z,100127.97
2022-12-31T04:18:49.087Z,100138.59
2022-12-31T04:21:19.583Z,100127.06
2022-12-31T04:23:48.829Z,100126.16
2022-12-31T04:26:17.877Z,100142.94
2022-12-31T04:28:47.136Z,100124.19
2022-12-31T04:31:16.175Z,100117.03
2022-12-31T04:33:45.449Z,100125.78
2022-12-31T04:36:14.757Z,100113.31
2022-12-31T04:38:46.288Z,100106.16
2022-12-31T04:41:18.550Z,100114.88
2022-12-31T04:43:49.729Z,100123.66
2022-12-31T04:46:21.079Z,100123.72
2022-12-31T04:48:50.667Z,100144.97
2022-12-31T04:51:19.659Z,100150.16
2022-12-31T04:53:50.785Z,100150.00
2022-12-31T04:56:21.804Z,100139.38
2022-12-31T04:58:51.875Z,100147.47
2022-12-31T05:01:21.210Z,100155.25
2022-12-31T05:03:51.343Z,100151.63
2022-12-31T05:06:23.399Z,100152.41
2022-12-31T05:08:54.307Z,100156.72
2022-12-31T05:11:23.402Z,100158.47
2022-12-31T05:13:52.731Z,100156.69
2022-12-31T05:16:21.722Z,100155.66
2022-12-31T05:18:51.046Z,100142.44
2022-12-31T05:21:22.202Z,100137.09
2022-12-31T05:23:53.160Z,100130.84
2022-12-31T05:26:22.215Z,100147.63
2022-12-31T05:28:51.509Z,100145.75
2022-12-31T05:31:20.669Z,100154.56
2022-12-31T05:33:50.276Z,100152.69
2022-12-31T05:36:19.337Z,100155.31
2022-12-31T05:38:48.743Z,100151.56
2022-12-31T05:41:19.120Z,100143.59
2022-12-31T05:43:48.518Z,100145.19
2022-12-31T05:46:17.529Z,100140.69
2022-12-31T05:48:46.971Z,100140.69
2022-12-31T05:51:16.097Z,100150.22
2022-12-31T05:53:45.499Z,100151.22
2022-12-31T05:56:14.614Z,100156.31
2022-12-31T05:58:45.270Z,100155.59
2022-12-31T06:01:14.419Z,100151.91
2022-12-31T06:03:43.771Z,100150.13
2022-12-31T06:06:12.987Z,100145.50
2022-12-31T06:08:42.365Z,100146.31
2022-12-31T06:11:11.440Z,100151.56
2022-12-31T06:13:40.685Z,100162.22
2022-12-31T06:16:12.159Z,100164.75
2022-12-31T06:18:41.615Z,100163.72
2022-12-31T06:21:10.619Z,100165.44
2022-12-31T06:23:42.297Z,100161.97
2022-12-31T06:26:11.434Z,100153.88
2022-12-31T06:28:40.739Z,100161.97
2022-12-31T06:31:14.024Z,100164.56
2022-12-31T06:33:43.982Z,100162.59
2022-12-31T06:36:16.382Z,100152.69
2022-12-31T06:38:46.878Z,100153.50
2022-12-31T06:41:18.318Z,100166.94
2022-12-31T06:43:47.903Z,100166.00
2022-12-31T06:46:19.566Z,100158.03
2022-12-31T06:48:49.009Z,100157.81
2022-12-31T06:51:20.291Z,100155.94
2022-12-31T06:53:51.605Z,100160.16
2022-12-31T06:56:26.492Z,100174.59
2022-12-31T06:59:00.938Z,100180.59
2022-12-31T07:01:36.327Z,100177.13
2022-12-31T07:04:21.642Z,100183.31
2022-12-31T07:06:56.187Z,100186.72
2022-12-31T07:09:34.253Z,100197.19
2022-12-31T07:12:10.833Z,100201.44
2022-12-31T07:14:47.494Z,100204.13
2022-12-31T07:17:33.036Z,100215.66
2022-12-31T07:20:07.999Z,100208.63
2022-12-31T07:22:37.869Z,100205.00
2022-12-31T07:25:08.701Z,100200.53
2022-12-31T07:27:54.152Z,100196.72
2022-12-31T07:30:29.961Z,100198.66
2022-12-31T07:33:26.856Z,100213.59
2022-12-31T07:36:07.286Z,100200.28
2022-12-31T07:38:46.589Z,100206.22
2022-12-31T07:41:19.172Z,100206.75
2022-12-31T07:44:01.463Z,100210.25
2022-12-31T07:46:37.205Z,100214.03
2022-12-31T07:49:11.372Z,100220.72
2022-12-31T07:51:41.634Z,100218.94
2022-12-31T07:54:14.224Z,100219.69
2022-12-31T07:56:44.601Z,100218.78
2022-12-31T07:59:29.021Z,100212.50
2022-12-31T08:02:08.572Z,100207.94
2022-12-31T08:04:50.605Z,100203.22
2022-12-31T08:07:31.199Z,100194.09
2022-12-31T08:10:12.525Z,100214.28
2022-12-31T08:12:46.970Z,100215.22
2022-12-31T08:15:18.368Z,100225.53
2022-12-31T08:17:48.335Z,100223.69
2022-12-31T08:20:19.181Z,100225.38
2022-12-31T08:23:12.311Z,100233.56
2022-12-31T08:26:01.401Z,100237.91
2022-12-31T08:29:00.156Z,100239.50
2022-12-31T08:31:38.105Z,100231.47
2022-12-31T08:34:17.264Z,100221.53
2022-12-31T08:36:56.403Z,100216.13
2022-12-31T08:39:47.966Z,100226.88
2022-12-31T08:42:26.344Z,100220.41
2022-12-31T08:45:12.810Z,100224.75
2022-12-31T08:47:55.053Z,100231.84
2022-12-31T08:50:28.066Z,100222.09
2022-12-31T08:52:59.529Z,100211.09
2022-12-31T08:55:29.562Z,100208.38
2022-12-31T08:58:13.697Z,100205.50
2022-12-31T09:00:44.006Z,100208.09
2022-12-31T09:03:31.708Z,100213.38
2022-12-31T09:06:09.549Z,100208.81
2022-12-31T09:08:48.643Z,100212.19
2022-12-31T09:11:24.327Z,100210.41
2022-12-31T09:14:18.730Z,100192.50
2022-12-31T09:16:57.635Z,100200.25
2022-12-31T09:19:26.774Z,100203.81
2022-12-31T09:21:56.663Z,100185.09
2022-12-31T09:24:27.389Z,100195.59
2022-12-31T09:27:06.515Z,100197.28
2022-12-31T09:29:46.601Z,100197.19
2022-12-31T09:32:27.016Z,100203.31
2022-12-31T09:35:03.965Z,100200.44
2022-12-31T09:37:45.173Z,100198.56
2022-12-31T09:40:44.873Z,100196.81
2022-12-31T09:43:46.224Z,100191.38
2022-12-31T09:46:54.627Z,100184.19
2022-12-31T09:50:06.988Z,100178.81
2022-12-31T09:52:51.473Z,100176.06
2022-12-31T09:55:35.549Z,100163.44
2022-12-31T09:58:21.704Z,100158.19
2022-12-31T10:00:57.580Z,100158.19
2022-12-31T10:03:41.331Z,100161.66
2022-12-31T10:06:34.229Z,100155.31
2022-12-31T10:09:38.312Z,100150.84
2022-12-31T10:12:34.966Z,100147.19
2022-12-31T10:15:31.523Z,100144.50
2022-12-31T10:18:12.879Z,100131.22
2022-12-31T10:20:56.021Z,100134.66
2022-12-31T10:23:53.534Z,100134.63
2022-12-31T10:26:32.915Z,100131.09
2022-12-31T10:29:10.837Z,100144.50
2022-12-31T10:31:48.113Z,100145.56
2022-12-31T10:34:27.072Z,100140.00
2022-12-31T10:36:59.188Z,100140.88
2022-12-31T10:39:46.521Z,100148.19
2022-12-31T10:42:45.089Z,100130.28
2022-12-31T10:45:48.041Z,100118.66
2022-12-31T10:48:45.089Z,100118.53
2022-12-31T10:52:00.263Z,100112.25
2022-12-31T10:54:58.960Z,100108.44
2022-12-31T10:58:04.705Z,100094.72
2022-12-31T11:00:41.746Z,100086.78
2022-12-31T11:03:53.152Z,100076.13
2022-12-31T11:07:00.232Z,100058.94
2022-12-31T11:10:10.943Z,100064.56
2022-12-31T11:13:15.531Z,100083.16
2022-12-31T11:16:14.777Z,100069.91
2022-12-31T11:18:53.434Z,100080.66
2022-12-31T11:21:41.574Z,100063.47
2022-12-31T11:24:25.709Z,100051.63
2022-12-31T11:27:08.796Z,100058.72
2022-12-31T11:30:00.991Z,100050.72
2022-12-31T11:32:50.965Z,100046.25
2022-12-31T11:35:33.235Z,100053.94
2022-12-31T11:38:16.318Z,100041.31
2022-12-31T11:41:01.058Z,100026.88
2022-12-31T11:43:37.370Z,100037.72
2022-12-31T11:46:29.529Z,100033.22
2022-12-31T11:49:13.825Z,100018.94
2022-12-31T11:52:21.779Z,99990.38
2022-12-31T11:55:24.534Z,100006.38
2022-12-31T11:57:55.853Z,100007.81
2022-12-31T12:00:28.154Z,100000.69
2022-12-31T12:03:01.080Z,100013.00
2022-12-31T12:05:31.842Z,100007.34
2022-12-31T12:08:02.348Z,100005.28
2022-12-31T12:10:39.811Z,100011.47
2022-12-31T12:13:20.702Z,100000.56
2022-12-31T12:15:52.119Z,99994.22
2022-12-31T12:18:31.540Z,99987.88
2022-12-31T12:21:07.968Z,99976.22
2022-12-31T12:23:37.542Z,99967.34
2022-12-31T12:26:08.021Z,99972.66
2022-12-31T12:28:48.015Z,99960.97
2022-12-31T12:31:21.942Z,99966.31
2022-12-31T12:33:53.005Z,99965.44
2022-12-31T12:36:23.023Z,99962.84
2022-12-31T12:39:03.544Z,99954.47
2022-12-31T12:41:33.380Z,99946.47
2022-12-31T12:44:09.495Z,99949.97
2022-12-31T12:46:48.305Z,99955.31
2022-12-31T12:49:25.568Z,99953.41
2022-12-31T12:52:23.280Z,99951.72
2022-12-31T12:55:06.218Z,99951.72
2022-12-31T12:57:47.381Z,99955.16
2022-12-31T13:00:25.061Z,99960.38
2022-12-31T13:03:16.538Z,99947.84
2022-12-31T13:05:57.867Z,99947.84
2022-12-31T13:08:44.888Z,99946.59
2022-12-31T13:11:28.766Z,99948.00
2022-12-31T13:14:07.394Z,99963.72
2022-12-31T13:16:46.508Z,99962.72
2022-12-31T13:19:24.690Z,99971.31
2022-12-31T13:22:02.647Z,99967.72
2022-12-31T13:24:47.643Z,99971.97
2022-12-31T13:27:23.990Z,99976.28
2022-12-31T13:29:56.269Z,99968.81
2022-12-31T13:32:40.744Z,99980.44
2022-12-31T13:35:25.806Z,99969.75
2022-12-31T13:38:05.427Z,99973.81
2022-12-31T13:40:46.991Z,99964.50
2022-12-31T13:43:22.137Z,99965.38
2022-12-31T13:46:02.918Z,99970.59
2022-12-31T13:48:38.543Z,99954.59
2022-12-31T13:51:15.064Z,99969.47
2022-12-31T13:53:50.361Z,99968.50
2022-12-31T13:56:24.367Z,99966.59
2022-12-31T13:58:59.055Z,99963.00
2022-12-31T14:01:34.610Z,99975.41
2022-12-31T14:04:12.988Z,99968.88
2022-12-31T14:06:47.263Z,99971.38
2022-12-31T14:09:21.627Z,99968.69
2022-12-31T14:12:04.003Z,99977.19
2022-12-31T14:14:44.278Z,99989.47
2022-12-31T14:17:21.941Z,99986.84
2022-12-31T14:20:03.811Z,99974.00
2022-12-31T14:22:44.412Z,99990.66
2022-12-31T14:25:22.313Z,99992.56
2022-12-31T14:27:53.497Z,100001.03
2022-12-31T14:30:25.461Z,100003.31
2022-12-31T14:33:09.343Z,100002.09
2022-12-31T14:36:10.330Z,100001.06
2022-12-31T14:38:53.429Z,99999.00
2022-12-31T14:41:35.587Z,99998.75
2022-12-31T14:44:29.124Z,100002.13
2022-12-31T14:47:13.793Z,99993.13
2022-12-31T14:49:51.864Z,99991.94
2022-12-31T14:52:30.650Z,99989.84
2022-12-31T14:55:04.645Z,99990.47
2022-12-31T14:58:09.733Z,99977.75
2022-12-31T15:00:32.347Z,99964.25
2022-12-31T15:03:05.699Z,99964.19
2022-12-31T15:05:37.333Z,99944.41
2022-12-31T15:08:32.220Z,99957.34
2022-12-31T15:11:23.844Z,99959.03
2022-12-31T15:14:09.771Z,99951.09
2022-12-31T15:16:50.528Z,99940.03
2022-12-31T15:19:50.789Z,99954.38
2022-12-31T15:22:36.740Z,99956.38
2022-12-31T15:25:23.072Z,99955.16
2022-12-31T15:27:53.311Z,99963.19
2022-12-31T15:30:43.093Z,99972.69
2022-12-31T15:33:23.864Z,99969.75
2022-12-31T15:35:55.181Z,99965.25
2022-12-31T15:38:37.425Z,99965.25
2022-12-31T15:41:29.086Z,99983.03
2022-12-31T15:44:03.348Z,99986.06
2022-12-31T15:46:38.664Z,99990.13
2022-12-31T15:49:15.894Z,99977.28
2022-12-31T15:51:49.161Z,99967.53
2022-12-31T15:54:25.477Z,99962.06
2022-12-31T15:56:56.409Z,99966.38
2022-12-31T15:59:27.986Z,99973.28
2022-12-31T16:01:58.568Z,99989.16
2022-12-31T16:04:29.908Z,99975.00
2022-12-31T16:07:02.064Z,99964.97
2022-12-31T16:09:34.190Z,99968.16
2022-12-31T16:12:11.439Z,99963.72
2022-12-31T16:14:46.027Z,99943.91
2022-12-31T16:17:29.645Z,99929.47
2022-12-31T16:19:59.580Z,99959.72
2022-12-31T16:22:31.119Z,99963.19
2022-12-31T16:25:29.647Z,99943.34
2022-12-31T16:27:53.557Z,99948.44
2022-12-31T16:30:26.547Z,99947.38
2022-12-31T16:33:00.079Z,99958.09
2022-12-31T16:35:31.757Z,99985.50
2022-12-31T16:38:12.048Z,99986.38
2022-12-31T16:40:42.106Z,100008.50
2022-12-31T16:43:30.530Z,100005.56
2022-12-31T16:46:09.857Z,99992.91
2022-12-31T16:48:40.541Z,99997.13
2022-12-31T16:51:18.144Z,99999.56
2022-12-31T16:53:48.226Z,100005.59
2022-12-31T16:56:26.118Z,99998.31
2022-12-31T16:59:01.911Z,99996.19
2022-12-31T17:01:35.428Z,99996.19
2022-12-31T17:04:10.436Z,99991.72
2022-12-31T17:06:39.973Z,99996.78
2022-12-31T17:09:15.245Z,100012.13
2022-12-31T17:11:48.256Z,100011.06
2022-12-31T17:14:20.277Z,99999.47
2022-12-31T17:17:02.792Z,100002.94
2022-12-31T17:19:42.059Z,99982.28
2022-12-31T17:22:17.362Z,99980.00
2022-12-31T17:24:50.124Z,99980.59
2022-12-31T17:27:20.055Z,99992.84
2022-12-31T17:29:52.252Z,99990.06
2022-12-31T17:32:31.273Z,99997.94
2022-12-31T17:35:00.864Z,100000.63
2022-12-31T17:37:31.012Z,99988.91
2022-12-31T17:40:25.015Z,100000.63
2022-12-31T17:42:51.716Z,99998.69
2022-12-31T17:45:23.471Z,99993.44
2022-12-31T17:47:55.740Z,99986.44
2022-12-31T17:50:27.733Z,100013.06
2022-12-31T17:53:00.705Z,100021.88
2022-12-31T17:55:30.528Z,100028.34
2022-12-31T17:58:03.672Z,100019.41
2022-12-31T18:00:35.199Z,100036.00
2022-12-31T18:03:04.751Z,100022.56
2022-12-31T18:05:33.783Z,100020.66
2022-12-31T18:08:02.961Z,100006.06
2022-12-31T18:10:36.859Z,100015.84
2022-12-31T18:13:07.001Z,100012.31
2022-12-31T18:15:37.741Z,100005.03
2022-12-31T18:18:24.307Z,99994.06
2022-12-31T18:20:58.059Z,99999.66
2022-12-31T18:23:29.580Z,100005.03
2022-12-31T18:25:58.927Z,100013.84
2022-12-31T18:28:28.293Z,100018.63
2022-12-31T18:30:58.932Z,100018.75
2022-12-31T18:33:28.641Z,100025.16
2022-12-31T18:36:08.798Z,100031.50
2022-12-31T18:38:39.307Z,100048.56
2022-12-31T18:41:13.777Z,100050.38
2022-12-31T18:43:43.140Z,100053.44
2022-12-31T18:46:15.875Z,100052.41
2022-12-31T18:48:45.619Z,100057.94
2022-12-31T18:51:16.746Z,100068.69
2022-12-31T18:53:46.605Z,100077.50
2022-12-31T18:56:17.642Z,100087.69
2022-12-31T18:58:47.917Z,100087.56
2022-12-31T19:01:30.066Z,100080.94
2022-12-31T19:04:00.924Z,100074.25
2022-12-31T19:06:32.053Z,100085.16
2022-12-31T19:09:01.419Z,100077.13
2022-12-31T19:11:32.961Z,100084.22
2022-12-31T19:14:02.756Z,100080.41
2022-12-31T19:16:32.912Z,100083.19
2022-12-31T19:19:08.321Z,100086.91
2022-12-31T19:21:37.925Z,100069.75
2022-12-31T19:24:12.857Z,100059.03
2022-12-31T19:26:43.716Z,100059.84
2022-12-31T19:29:17.860Z,100062.53
2022-12-31T19:31:48.786Z,100066.09
2022-12-31T19:34:18.265Z,100064.06
2022-12-31T19:36:47.835Z,100055.09
2022-12-31T19:39:19.389Z,100053.66
2022-12-31T19:41:54.803Z,100057.94
2022-12-31T19:44:28.060Z,100057.00
2022-12-31T19:46:58.567Z,100064.19
2022-12-31T19:49:28.027Z,100068.69
2022-12-31T19:51:57.014Z,100062.25
2022-12-31T19:54:26.348Z,100073.88
2022-12-31T19:56:55.749Z,100076.56
2022-12-31T19:59:25.127Z,100080.13
2022-12-31T20:01:54.733Z,100081.16
2022-12-31T20:04:25.543Z,100075.03
2022-12-31T20:06:55.111Z,100078.47
2022-12-31T20:09:24.353Z,100080.94
2022-12-31T20:11:53.430Z,100071.00
2022-12-31T20:14:22.692Z,100073.09
2022-12-31T20:16:52.680Z,100064.94
2022-12-31T20:19:22.106Z,100074.81
2022-12-31T20:21:53.307Z,100083.75
2022-12-31T20:24:22.701Z,100071.28
2022-12-31T20:26:51.673Z,100072.13
2022-12-31T20:29:21.004Z,100071.28
2022-12-31T20:31:49.976Z,100068.69
2022-12-31T20:34:19.369Z,100070.41
2022-12-31T20:36:48.555Z,100061.97
2022-12-31T20:39:19.229Z,100057.38
2022-12-31T20:41:49.356Z,100053.94
2022-12-31T20:44:18.698Z,100047.69
2022-12-31T20:46:47.721Z,100045.28
2022-12-31T20:49:23.708Z,100054.38
2022-12-31T20:52:06.029Z,100071.53
2022-12-31T20:54:37.308Z,100075.19
2022-12-31T20:57:06.480Z,100078.66
2022-12-31T20:59:35.731Z,100098.19
2022-12-31T21:02:20.890Z,100105.31
2022-12-31T21:04:50.797Z,100102.03
2022-12-31T21:07:20.034Z,100108.28
2022-12-31T21:09:50.808Z,100100.22
2022-12-31T21:12:37.287Z,100085.94
2022-12-31T21:15:07.689Z,100075.19
2022-12-31T21:17:38.748Z,100074.41
2022-12-31T21:20:08.659Z,100079.91
2022-12-31T21:22:38.249Z,100079.03
2022-12-31T21:25:12.041Z,100073.66
2022-12-31T21:27:41.153Z,100070.19
2022-12-31T21:30:20.390Z,100090.81
2022-12-31T21:32:49.754Z,100096.28
2022-12-31T21:38:10.664Z,100112.50
2022-12-31T21:40:41.536Z,100114.25
2022-12-31T21:43:10.510Z,100109.16
2022-12-31T21:45:40.094Z,100096.50
2022-12-31T21:48:21.581Z,100086.81
2022-12-31T21:50:52.891Z,100084.91
2022-12-31T21:53:27.894Z,100078.00
2022-12-31T21:56:14.559Z,100080.16
2022-12-31T21:58:45.919Z,100066.75
2022-12-31T22:01:37.354Z,100077.28
2022-12-31T22:04:28.183Z,100068.47
2022-12-31T22:06:57.520Z,100061.94
2022-12-31T22:09:26.523Z,100050.28
2022-12-31T22:11:57.292Z,100044.53
2022-12-31T22:14:26.378Z,100038.00
2022-12-31T22:16:55.658Z,100031.59
2022-12-31T22:19:24.857Z,100027.84
2022-12-31T22:21:54.137Z,100030.72
2022-12-31T22:24:23.266Z,100057.44
2022-12-31T22:26:55.615Z,100060.13
2022-12-31T22:29:26.292Z,100064.47
2022-12-31T22:32:01.054Z,100071.56
2022-12-31T22:34:30.312Z,100077.13
2022-12-31T22:37:08.960Z,100086.91
2022-12-31T22:39:48.816Z,100084.13
2022-12-31T22:42:18.109Z,100063.69
2022-12-31T22:44:48.601Z,100070.97
2022-12-31T22:47:18.111Z,100075.59
2022-12-31T22:49:47.191Z,100071.47
2022-12-31T22:52:16.451Z,100068.88
2022-12-31T22:54:45.559Z,100065.44
2022-12-31T22:57:19.973Z,100061.97
2022-12-31T22:59:51.405Z,100057.44
2022-12-31T23:02:20.765Z,100057.44
2022-12-31T23:04:49.808Z,100058.31
2022-12-31T23:07:19.390Z,100065.63
2022-12-31T23:10:05.960Z,100059.97
2022-12-31T23:12:35.609Z,100043.97
2022-12-31T23:15:24.012Z,100050.38
2022-12-31T23:18:10.686Z,100058.44
2022-12-31T23:20:57.566Z,100060.06
2022-12-31T23:23:26.913Z,100054.88
2022-12-31T23:26:02.732Z,100061.41
2022-12-31T23:28:32.141Z,100078.25
2022-12-31T23:31:07.787Z,100068.13
2022-12-31T23:33:37.238Z,100072.78
2022-12-31T23:36:08.075Z,100075.59
2022-12-31T23:38:37.469Z,100076.56
2022-12-31T23:41:13.655Z,100075.47
2022-12-31T23:43:42.986Z,100063.03
2022-12-31T23:46:14.038Z,100073.94
2022-12-31T23:48:43.641Z,100073.00
2022-12-31T23:51:12.610Z,100075.00
2022-12-31T23:53:42.020Z,100073.38
2022-12-31T23:56:19.281Z,100076.72
2022-12-31T23:58:55.685Z,100061.66
